sensor_id;sensor_type;location;lat;lon;timestamp;pressure;altitude;pressure_sealevel;temperature;humidity
57628;BME280;43451;49.060;10.616;2023-05-11T00:00:13;96503.00;;;11.48;100.00
57628;BME280;43451;49.060;10.616;2023-05-11T00:02:38;96505.75;;;11.44;100.00
57628;BME280;43451;49.060;10.616;2023-05-11T00:05:04;96505.03;;;11.40;100.00
57628;BME280;43451;49.060;10.616;2023-05-11T00:07:29;96508.16;;;11.35;100.00
57628;BME280;43451;49.060;10.616;2023-05-11T00:09:55;96512.38;;;11.43;100.00
57628;BME280;43451;49.060;10.616;2023-05-11T00:12:20;96501.13;;;11.41;100.00
57628;BME280;43451;49.060;10.616;2023-05-11T00:14:46;96499.59;;;11.40;100.00
57628;BME280;43451;49.060;10.616;2023-05-11T00:17:11;96501.50;;;11.43;100.00
57628;BME280;43451;49.060;10.616;2023-05-11T00:19:37;96490.69;;;11.36;100.00
57628;BME280;43451;49.060;10.616;2023-05-11T00:22:02;96501.19;;;11.34;100.00
57628;BME280;43451;49.060;10.616;2023-05-11T00:24:28;96500.38;;;11.37;100.00
57628;BME280;43451;49.060;10.616;2023-05-11T00:26:54;96501.19;;;11.34;100.00
57628;BME280;43451;49.060;10.616;2023-05-11T00:29:19;96502.78;;;11.28;100.00
57628;BME280;43451;49.060;10.616;2023-05-11T00:31:45;96489.22;;;11.24;100.00
57628;BME280;43451;49.060;10.616;2023-05-11T00:34:13;96495.81;;;11.27;100.00
57628;BME280;43451;49.060;10.616;2023-05-11T00:36:38;96491.19;;;11.24;100.00
57628;BME280;43451;49.060;10.616;2023-05-11T00:39:04;96488.81;;;11.29;100.00
57628;BME280;43451;49.060;10.616;2023-05-11T00:41:29;96488.81;;;11.26;100.00
57628;BME280;43451;49.060;10.616;2023-05-11T00:43:55;96486.47;;;11.28;100.00
57628;BME280;43451;49.060;10.616;2023-05-11T00:46:20;96486.09;;;11.29;100.00
57628;BME280;43451;49.060;10.616;2023-05-11T00:48:46;96487.66;;;11.27;100.00
57628;BME280;43451;49.060;10.616;2023-05-11T00:51:12;96487.28;;;11.25;100.00
57628;BME280;43451;49.060;10.616;2023-05-11T00:53:38;96487.28;;;11.25;100.00
57628;BME280;43451;49.060;10.616;2023-05-11T00:56:03;96480.31;;;11.24;100.00
57628;BME280;43451;49.060;10.616;2023-05-11T00:58:29;96480.34;;;11.20;100.00
57628;BME280;43451;49.060;10.616;2023-05-11T01:00:55;96485.81;;;11.17;100.00
57628;BME280;43451;49.060;10.616;2023-05-11T01:03:20;96487.34;;;11.18;100.00
57628;BME280;43451;49.060;10.616;2023-05-11T01:05:47;96484.66;;;11.14;100.00
57628;BME280;43451;49.060;10.616;2023-05-11T01:08:14;96481.56;;;11.12;100.00
57628;BME280;43451;49.060;10.616;2023-05-11T01:10:47;96485.06;;;11.09;100.00
57628;BME280;43451;49.060;10.616;2023-05-11T01:13:25;96486.63;;;11.06;100.00
57628;BME280;43451;49.060;10.616;2023-05-11T01:15:52;96485.91;;;11.02;100.00
57628;BME280;43451;49.060;10.616;2023-05-11T01:20:49;96484.41;;;10.98;100.00
57628;BME280;43451;49.060;10.616;2023-05-11T01:23:42;96482.44;;;10.98;100.00
57628;BME280;43451;49.060;10.616;2023-05-11T01:28:48;96478.56;;;10.96;100.00
57628;BME280;43451;49.060;10.616;2023-05-11T01:31:17;96478.97;;;10.94;100.00
57628;BME280;43451;49.060;10.616;2023-05-11T01:33:49;96475.88;;;10.92;100.00
57628;BME280;43451;49.060;10.616;2023-05-11T01:36:15;96481.28;;;10.96;100.00
57628;BME280;43451;49.060;10.616;2023-05-11T01:38:44;96476.63;;;10.96;100.00
57628;BME280;43451;49.060;10.616;2023-05-11T01:41:11;96476.25;;;10.94;100.00
57628;BME280;43451;49.060;10.616;2023-05-11T01:43:39;96475.88;;;10.92;100.00
57628;BME280;43451;49.060;10.616;2023-05-11T01:46:05;96480.56;;;10.91;100.00
57628;BME280;43451;49.060;10.616;2023-05-11T01:48:32;96478.22;;;10.90;100.00
57628;BME280;43451;49.060;10.616;2023-05-11T01:51:00;96476.28;;;10.87;100.00
57628;BME280;43451;49.060;10.616;2023-05-11T01:53:30;96477.50;;;10.82;100.00
57628;BME280;43451;49.060;10.616;2023-05-11T01:55:57;96481.38;;;10.85;100.00
57628;BME280;43451;49.060;10.616;2023-05-11T01:58:23;96476.72;;;10.85;100.00
57628;BME280;43451;49.060;10.616;2023-05-11T02:00:50;96470.50;;;10.85;100.00
57628;BME280;43451;49.060;10.616;2023-05-11T02:03:16;96476.72;;;10.85;100.00
57628;BME280;43451;49.060;10.616;2023-05-11T02:05:42;96472.84;;;10.83;100.00
57628;BME280;43451;49.060;10.616;2023-05-11T02:08:11;96473.22;;;10.81;100.00
57628;BME280;43451;49.060;10.616;2023-05-11T02:10:38;96475.94;;;10.81;100.00
57628;BME280;43451;49.060;10.616;2023-05-11T02:13:04;96482.56;;;10.80;100.00
57628;BME280;43451;49.060;10.616;2023-05-11T02:15:30;96482.56;;;10.80;100.00
57628;BME280;43451;49.060;10.616;2023-05-11T02:17:57;96477.53;;;10.79;100.00
57628;BME280;43451;49.060;10.616;2023-05-11T02:20:23;96481.41;;;10.78;100.00
57628;BME280;43451;49.060;10.616;2023-05-11T02:22:49;96479.88;;;10.77;100.00
57628;BME280;43451;49.060;10.616;2023-05-11T02:25:16;96479.13;;;10.73;100.00
57628;BME280;43451;49.060;10.616;2023-05-11T02:27:42;96491.16;;;10.72;100.00
57628;BME280;43451;49.060;10.616;2023-05-11T02:30:08;96490.00;;;10.73;100.00
57628;BME280;43451;49.060;10.616;2023-05-11T02:32:34;96488.44;;;10.72;100.00
57628;BME280;43451;49.060;10.616;2023-05-11T02:35:06;96487.63;;;10.75;100.00
57628;BME280;43451;49.060;10.616;2023-05-11T02:37:34;96478.72;;;10.74;100.00
57628;BME280;43451;49.060;10.616;2023-05-11T02:40:04;96486.06;;;10.77;100.00
57628;BME280;43451;49.060;10.616;2023-05-11T02:42:32;96489.56;;;10.78;100.00
57628;BME280;43451;49.060;10.616;2023-05-11T02:45:02;96485.31;;;10.73;100.00
57628;BME280;43451;49.060;10.616;2023-05-11T02:47:30;96486.13;;;10.70;100.00
57628;BME280;43451;49.060;10.616;2023-05-11T02:49:56;96488.06;;;10.69;100.00
57628;BME280;43451;49.060;10.616;2023-05-11T02:52:24;96489.63;;;10.67;100.00
57628;BME280;43451;49.060;10.616;2023-05-11T02:54:51;96479.91;;;10.69;100.00
57628;BME280;43451;49.060;10.616;2023-05-11T02:57:17;96477.97;;;10.70;100.00
57628;BME280;43451;49.060;10.616;2023-05-11T02:59:44;96475.63;;;10.76;100.00
57628;BME280;43451;49.060;10.616;2023-05-11T03:02:09;96475.22;;;10.74;100.00
57628;BME280;43451;49.060;10.616;2023-05-11T03:04:34;96476.81;;;10.67;100.00
57628;BME280;43451;49.060;10.616;2023-05-11T03:07:01;96476.06;;;10.63;100.00
57628;BME280;43451;49.060;10.616;2023-05-11T03:09:26;96473.38;;;10.60;100.00
57628;BME280;43451;49.060;10.616;2023-05-11T03:11:52;96472.63;;;10.59;100.00
57628;BME280;43451;49.060;10.616;2023-05-11T03:14:18;96471.44;;;10.60;100.00
57628;BME280;43451;49.060;10.616;2023-05-11T03:16:43;96469.13;;;10.55;100.00
57628;BME280;43451;49.060;10.616;2023-05-11T03:19:09;96470.63;;;10.63;100.00
57628;BME280;43451;49.060;10.616;2023-05-11T03:21:35;96472.25;;;10.54;100.00
57628;BME280;43451;49.060;10.616;2023-05-11T03:24:01;96469.16;;;10.48;100.00
57628;BME280;43451;49.060;10.616;2023-05-11T03:26:27;96478.13;;;10.45;100.00
57628;BME280;43451;49.060;10.616;2023-05-11T03:28:54;96467.25;;;10.45;100.00
57628;BME280;43451;49.060;10.616;2023-05-11T03:31:21;96473.84;;;10.44;100.00
57628;BME280;43451;49.060;10.616;2023-05-11T03:33:46;96476.53;;;10.51;100.00
57628;BME280;43451;49.060;10.616;2023-05-11T03:36:11;96475.78;;;10.47;100.00
57628;BME280;43451;49.060;10.616;2023-05-11T03:38:38;96472.69;;;10.41;100.00
57628;BME280;43451;49.060;10.616;2023-05-11T03:41:04;96471.53;;;10.42;100.00
57628;BME280;43451;49.060;10.616;2023-05-11T03:43:29;96466.06;;;10.46;100.00
57628;BME280;43451;49.060;10.616;2023-05-11T03:45:56;96462.59;;;10.42;100.00
57628;BME280;43451;49.060;10.616;2023-05-11T03:48:22;96468.84;;;10.39;100.00
57628;BME280;43451;49.060;10.616;2023-05-11T03:50:47;96467.69;;;10.33;100.00
57628;BME280;43451;49.060;10.616;2023-05-11T03:53:13;96470.41;;;10.33;100.00
57628;BME280;43451;49.060;10.616;2023-05-11T03:55:38;96469.63;;;10.36;100.00
57628;BME280;43451;49.060;10.616;2023-05-11T03:58:05;96461.50;;;10.32;100.00
57628;BME280;43451;49.060;10.616;2023-05-11T04:00:30;96459.19;;;10.31;100.00
57628;BME280;43451;49.060;10.616;2023-05-11T04:02:56;96470.81;;;10.31;100.00
57628;BME280;43451;49.060;10.616;2023-05-11T04:05:21;96461.09;;;10.34;100.00
57628;BME280;43451;49.060;10.616;2023-05-11T04:07:47;96461.91;;;10.31;100.00
57628;BME280;43451;49.060;10.616;2023-05-11T04:10:14;96467.69;;;10.33;100.00
57628;BME280;43451;49.060;10.616;2023-05-11T04:12:39;96471.59;;;10.32;100.00
57628;BME280;43451;49.060;10.616;2023-05-11T04:15:05;96473.91;;;10.30;100.00
57628;BME280;43451;49.060;10.616;2023-05-11T04:17:30;96473.56;;;10.28;100.00
57628;BME280;43451;49.060;10.616;2023-05-11T04:19:56;96471.59;;;10.25;100.00
57628;BME280;43451;49.060;10.616;2023-05-11T04:22:21;96468.50;;;10.26;100.00
57628;BME280;43451;49.060;10.616;2023-05-11T04:24:47;96470.03;;;10.23;100.00
57628;BME280;43451;49.060;10.616;2023-05-11T04:27:12;96471.59;;;10.25;100.00
57628;BME280;43451;49.060;10.616;2023-05-11T04:29:38;96479.34;;;10.22;100.00
57628;BME280;43451;49.060;10.616;2023-05-11T04:32:03;96475.09;;;10.21;100.00
57628;BME280;43451;49.060;10.616;2023-05-11T04:34:28;96470.81;;;10.20;100.00
57628;BME280;43451;49.060;10.616;2023-05-11T04:36:54;96478.59;;;10.18;100.00
57628;BME280;43451;49.060;10.616;2023-05-11T04:39:19;96470.84;;;10.17;100.00
57628;BME280;43451;49.060;10.616;2023-05-11T04:41:45;96473.94;;;10.22;100.00
57628;BME280;43451;49.060;10.616;2023-05-11T04:44:10;96474.31;;;10.17;100.00
57628;BME280;43451;49.060;10.616;2023-05-11T04:46:36;96479.41;;;10.15;100.00
57628;BME280;43451;49.060;10.616;2023-05-11T04:49:03;96474.72;;;10.16;100.00
57628;BME280;43451;49.060;10.616;2023-05-11T04:51:28;96477.44;;;10.16;100.00
57628;BME280;43451;49.060;10.616;2023-05-11T04:53:54;96482.47;;;10.17;100.00
57628;BME280;43451;49.060;10.616;2023-05-11T04:56:19;96483.25;;;10.18;100.00
57628;BME280;43451;49.060;10.616;2023-05-11T04:58:46;96475.47;;;10.23;100.00
57628;BME280;43451;49.060;10.616;2023-05-11T05:01:11;96485.19;;;10.25;100.00
57628;BME280;43451;49.060;10.616;2023-05-11T05:03:36;96487.88;;;10.25;100.00
57628;BME280;43451;49.060;10.616;2023-05-11T05:06:02;96486.34;;;10.27;100.00
57628;BME280;43451;49.060;10.616;2023-05-11T05:08:28;96486.34;;;10.31;100.00
57628;BME280;43451;49.060;10.616;2023-05-11T05:10:53;96484.00;;;10.33;100.00
57628;BME280;43451;49.060;10.616;2023-05-11T05:13:18;96485.53;;;10.30;100.00
57628;BME280;43451;49.060;10.616;2023-05-11T05:15:44;96481.69;;;10.28;100.00
57628;BME280;43451;49.060;10.616;2023-05-11T05:18:09;96485.19;;;10.28;100.00
57628;BME280;43451;49.060;10.616;2023-05-11T05:20:34;96484.38;;;10.24;100.00
57628;BME280;43451;49.060;10.616;2023-05-11T05:23:00;96480.53;;;10.21;100.00
57628;BME280;43451;49.060;10.616;2023-05-11T05:25:26;96481.28;;;10.26;100.00
57628;BME280;43451;49.060;10.616;2023-05-11T05:27:51;96489.47;;;10.18;100.00
57628;BME280;43451;49.060;10.616;2023-05-11T05:30:16;96483.59;;;10.23;100.00
57628;BME280;43451;49.060;10.616;2023-05-11T05:32:42;96480.91;;;10.31;100.00
57628;BME280;43451;49.060;10.616;2023-05-11T05:35:07;96488.66;;;10.29;100.00
57628;BME280;43451;49.060;10.616;2023-05-11T05:37:33;96490.59;;;10.25;100.00
57628;BME280;43451;49.060;10.616;2023-05-11T05:39:58;96488.28;;;10.19;100.00
57628;BME280;43451;49.060;10.616;2023-05-11T05:42:23;96488.69;;;10.21;100.00
57628;BME280;43451;49.060;10.616;2023-05-11T05:44:49;96486.34;;;10.20;100.00
57628;BME280;43451;49.060;10.616;2023-05-11T05:47:15;96491.75;;;10.23;100.00
57628;BME280;43451;49.060;10.616;2023-05-11T05:49:40;96499.53;;;10.21;100.00
57628;BME280;43451;49.060;10.616;2023-05-11T05:52:06;96503.03;;;10.18;100.00
57628;BME280;43451;49.060;10.616;2023-05-11T05:54:31;96496.81;;;10.21;100.00
57628;BME280;43451;49.060;10.616;2023-05-11T05:56:57;96496.41;;;10.23;100.00
57628;BME280;43451;49.060;10.616;2023-05-11T05:59:22;96497.59;;;10.22;100.00
57628;BME280;43451;49.060;10.616;2023-05-11T06:01:49;96503.41;;;10.20;100.00
57628;BME280;43451;49.060;10.616;2023-05-11T06:04:14;96500.31;;;10.18;100.00
57628;BME280;43451;49.060;10.616;2023-05-11T06:06:40;96494.88;;;10.22;100.00
57628;BME280;43451;49.060;10.616;2023-05-11T06:09:05;96491.41;;;10.21;100.00
57628;BME280;43451;49.060;10.616;2023-05-11T06:11:31;96496.81;;;10.21;100.00
57628;BME280;43451;49.060;10.616;2023-05-11T06:13:56;96501.84;;;10.27;100.00
57628;BME280;43451;49.060;10.616;2023-05-11T06:16:21;96495.66;;;10.26;100.00
57628;BME280;43451;49.060;10.616;2023-05-11T06:18:49;96499.13;;;10.27;100.00
57628;BME280;43451;49.060;10.616;2023-05-11T06:21:14;96503.44;;;10.28;100.00
57628;BME280;43451;49.060;10.616;2023-05-11T06:23:40;96506.13;;;10.28;100.00
57628;BME280;43451;49.060;10.616;2023-05-11T06:26:05;96499.91;;;10.27;100.00
57628;BME280;43451;49.060;10.616;2023-05-11T06:28:31;96498.31;;;10.37;100.00
57628;BME280;43451;49.060;10.616;2023-05-11T06:30:56;96502.59;;;10.38;100.00
57628;BME280;43451;49.060;10.616;2023-05-11T06:33:24;96501.03;;;10.37;100.00
57628;BME280;43451;49.060;10.616;2023-05-11T06:35:50;96501.03;;;10.37;100.00
57628;BME280;43451;49.060;10.616;2023-05-11T06:38:16;96505.31;;;10.38;100.00
57628;BME280;43451;49.060;10.616;2023-05-11T06:40:42;96500.25;;;10.40;100.00
57628;BME280;43451;49.060;10.616;2023-05-11T06:43:08;96505.31;;;10.38;100.00
57628;BME280;43451;49.060;10.616;2023-05-11T06:45:34;96498.69;;;10.42;100.00
57628;BME280;43451;49.060;10.616;2023-05-11T06:48:00;96494.41;;;10.45;100.00
57628;BME280;43451;49.060;10.616;2023-05-11T06:50:27;96497.44;;;10.58;100.00
57628;BME280;43451;49.060;10.616;2023-05-11T06:52:52;96497.06;;;10.56;100.00
57628;BME280;43451;49.060;10.616;2023-05-11T06:55:19;96500.94;;;10.58;100.00
57628;BME280;43451;49.060;10.616;2023-05-11T06:57:44;96499.41;;;10.57;100.00
57628;BME280;43451;49.060;10.616;2023-05-11T07:00:10;96501.69;;;10.59;100.00
57628;BME280;43451;49.060;10.616;2023-05-11T07:02:36;96502.50;;;10.59;100.00
57628;BME280;43451;49.060;10.616;2023-05-11T07:05:01;96501.31;;;10.60;100.00
57628;BME280;43451;49.060;10.616;2023-05-11T07:07:26;96504.81;;;10.61;100.00
57628;BME280;43451;49.060;10.616;2023-05-11T07:09:52;96497.03;;;10.63;100.00
57628;BME280;43451;49.060;10.616;2023-05-11T07:12:17;96501.69;;;10.62;100.00
57628;BME280;43451;49.060;10.616;2023-05-11T07:14:42;96495.88;;;10.60;100.00
57628;BME280;43451;49.060;10.616;2023-05-11T07:17:08;96500.53;;;10.63;100.00
57628;BME280;43451;49.060;10.616;2023-05-11T07:19:33;96500.88;;;10.69;100.00
57628;BME280;43451;49.060;10.616;2023-05-11T07:21:58;96500.09;;;10.68;100.00
57628;BME280;43451;49.060;10.616;2023-05-11T07:24:25;96507.09;;;10.69;100.00
57628;BME280;43451;49.060;10.616;2023-05-11T07:26:51;96507.06;;;10.73;100.00
57628;BME280;43451;49.060;10.616;2023-05-11T07:29:16;96509.34;;;10.82;100.00
57628;BME280;43451;49.060;10.616;2023-05-11T07:31:42;96507.78;;;10.81;100.00
57628;BME280;43451;49.060;10.616;2023-05-11T07:34:08;96496.22;;;10.69;100.00
57628;BME280;43451;49.060;10.616;2023-05-11T07:36:33;96493.03;;;10.82;100.00
57628;BME280;43451;49.060;10.616;2023-05-11T07:38:58;96490.75;;;10.77;100.00
57628;BME280;43451;49.060;10.616;2023-05-11T07:41:25;96496.25;;;10.66;100.00
57628;BME280;43451;49.060;10.616;2023-05-11T07:43:51;96495.38;;;10.80;100.00
57628;BME280;43451;49.060;10.616;2023-05-11T07:46:17;96503.91;;;10.82;100.00
57628;BME280;43451;49.060;10.616;2023-05-11T07:48:42;96502.03;;;10.75;100.00
57628;BME280;43451;49.060;10.616;2023-05-11T07:51:08;96501.22;;;10.75;100.00
57628;BME280;43451;49.060;10.616;2023-05-11T07:53:33;96498.44;;;10.89;100.00
57628;BME280;43451;49.060;10.616;2023-05-11T07:55:58;96493.72;;;10.93;100.00
57628;BME280;43451;49.060;10.616;2023-05-11T07:58:24;96506.56;;;10.89;100.00
57628;BME280;43451;49.060;10.616;2023-05-11T08:00:50;96500.75;;;10.87;100.00
57628;BME280;43451;49.060;10.616;2023-05-11T08:03:15;96502.38;;;10.77;100.00
57628;BME280;43451;49.060;10.616;2023-05-11T08:05:41;96498.47;;;10.82;100.00
57628;BME280;43451;49.060;10.616;2023-05-11T08:08:06;96498.38;;;10.96;100.00
57628;BME280;43451;49.060;10.616;2023-05-11T08:10:32;96497.59;;;10.96;100.00
57628;BME280;43451;49.060;10.616;2023-05-11T08:12:57;96500.63;;;11.08;100.00
57628;BME280;43451;49.060;10.616;2023-05-11T08:15:23;96497.16;;;11.04;100.00
57628;BME280;43451;49.060;10.616;2023-05-11T08:17:49;96507.56;;;11.17;100.00
57628;BME280;43451;49.060;10.616;2023-05-11T08:20:14;96499.88;;;11.04;100.00
57628;BME280;43451;49.060;10.616;2023-05-11T08:22:40;96499.50;;;11.02;100.00
57628;BME280;43451;49.060;10.616;2023-05-11T08:25:05;96504.16;;;11.02;100.00
57628;BME280;43451;49.060;10.616;2023-05-11T08:27:31;96499.19;;;10.89;100.00
57628;BME280;43451;49.060;10.616;2023-05-11T08:29:56;96498.47;;;10.82;100.00
57628;BME280;43451;49.060;10.616;2023-05-11T08:32:22;96490.69;;;10.84;100.00
57628;BME280;43451;49.060;10.616;2023-05-11T08:34:47;96490.66;;;10.91;100.00
57628;BME280;43451;49.060;10.616;2023-05-11T08:37:13;96494.88;;;10.96;100.00
57628;BME280;43451;49.060;10.616;2023-05-11T08:39:38;96502.69;;;10.90;100.00
57628;BME280;43451;49.060;10.616;2023-05-11T08:42:04;96502.31;;;10.88;100.00
57628;BME280;43451;49.060;10.616;2023-05-11T08:44:34;96504.25;;;10.91;100.00
57628;BME280;43451;49.060;10.616;2023-05-11T08:47:00;96496.09;;;10.91;100.00
57628;BME280;43451;49.060;10.616;2023-05-11T08:49:26;96495.66;;;10.96;100.00
57628;BME280;43451;49.060;10.616;2023-05-11T08:51:51;96497.56;;;10.99;100.00
57628;BME280;43451;49.060;10.616;2023-05-11T08:54:17;96502.94;;;11.06;100.00
57628;BME280;43451;49.060;10.616;2023-05-11T08:56:42;96504.63;;;10.89;100.00
57628;BME280;43451;49.060;10.616;2023-05-11T08:59:09;96501.50;;;10.95;100.00
57628;BME280;43451;49.060;10.616;2023-05-11T09:01:36;96498.44;;;10.85;100.00
57628;BME280;43451;49.060;10.616;2023-05-11T09:04:03;96495.69;;;10.92;100.00
57628;BME280;43451;49.060;10.616;2023-05-11T09:06:29;96500.28;;;10.99;100.00
57628;BME280;43451;49.060;10.616;2023-05-11T09:08:55;96504.53;;;11.00;100.00
57628;BME280;43451;49.060;10.616;2023-05-11T09:11:22;96506.09;;;11.05;100.00
57628;BME280;43451;49.060;10.616;2023-05-11T09:13:49;96508.50;;;10.92;100.00
57628;BME280;43451;49.060;10.616;2023-05-11T09:16:15;96505.00;;;10.91;100.00
57628;BME280;43451;49.060;10.616;2023-05-11T09:18:47;96514.31;;;10.90;100.00
57628;BME280;43451;49.060;10.616;2023-05-11T09:21:12;96508.09;;;10.93;100.00
57628;BME280;43451;49.060;10.616;2023-05-11T09:23:38;96510.03;;;10.93;100.00
57628;BME280;43451;49.060;10.616;2023-05-11T09:26:11;96514.28;;;10.98;100.00
57628;BME280;43451;49.060;10.616;2023-05-11T09:28:37;96506.34;;;11.21;100.00
57628;BME280;43451;49.060;10.616;2023-05-11T09:31:02;96507.63;;;11.06;100.00
57628;BME280;43451;49.060;10.616;2023-05-11T09:33:28;96512.34;;;10.98;100.00
57628;BME280;43451;49.060;10.616;2023-05-11T09:35:53;96511.91;;;11.03;100.00
57628;BME280;43451;49.060;10.616;2023-05-11T09:38:19;96500.69;;;10.94;100.00
57628;BME280;43451;49.060;10.616;2023-05-11T09:40:54;96508.44;;;10.99;100.00
57628;BME280;43451;49.060;10.616;2023-05-11T09:43:27;96508.34;;;11.10;100.00
57628;BME280;43451;49.060;10.616;2023-05-11T09:45:53;96506.28;;;11.28;100.00
57628;BME280;43451;49.060;10.616;2023-05-11T09:50:45;96505.28;;;11.08;100.00
57628;BME280;43451;49.060;10.616;2023-05-11T09:53:11;96501.38;;;11.09;100.00
57628;BME280;43451;49.060;10.616;2023-05-11T09:55:37;96497.53;;;11.03;100.00
57628;BME280;43451;49.060;10.616;2023-05-11T09:58:03;96500.19;;;11.10;100.00
57628;BME280;43451;49.060;10.616;2023-05-11T10:00:29;96499.44;;;11.09;100.00
57628;BME280;43451;49.060;10.616;2023-05-11T10:03:00;96502.50;;;11.15;100.00
57628;BME280;43451;49.060;10.616;2023-05-11T10:05:28;96501.19;;;11.34;100.00
57628;BME280;43451;49.060;10.616;2023-05-11T10:07:56;96492.41;;;11.15;100.00
57628;BME280;43451;49.060;10.616;2023-05-11T10:10:22;96496.69;;;11.17;100.00
57628;BME280;43451;49.060;10.616;2023-05-11T10:12:48;96499.41;;;11.13;100.00
57628;BME280;43451;49.060;10.616;2023-05-11T10:15:14;96499.63;;;11.36;100.00
57628;BME280;43451;49.060;10.616;2023-05-11T10:17:42;96488.66;;;11.44;100.00
57628;BME280;43451;49.060;10.616;2023-05-11T10:20:09;96490.13;;;11.55;100.00
57628;BME280;43451;49.060;10.616;2023-05-11T10:22:34;96488.81;;;11.71;100.00
57628;BME280;43451;49.060;10.616;2023-05-11T10:25:00;96479.09;;;11.70;100.00
57628;BME280;43451;49.060;10.616;2023-05-11T10:27:27;96481.66;;;11.88;100.00
57628;BME280;43451;49.060;10.616;2023-05-11T10:29:52;96486.81;;;11.75;100.00
57628;BME280;43451;49.060;10.616;2023-05-11T10:32:18;96473.59;;;11.73;100.00
57628;BME280;43451;49.060;10.616;2023-05-11T10:34:45;96479.31;;;11.48;100.00
57628;BME280;43451;49.060;10.616;2023-05-11T10:37:11;96480.97;;;11.35;100.00
57628;BME280;43451;49.060;10.616;2023-05-11T10:39:37;96475.53;;;11.35;100.00
57628;BME280;43451;49.060;10.616;2023-05-11T10:42:07;96473.75;;;11.59;100.00
57628;BME280;43451;49.060;10.616;2023-05-11T10:47:21;96480.03;;;11.52;100.00
57628;BME280;43451;49.060;10.616;2023-05-11T10:55:35;96473.16;;;11.41;100.00
57628;BME280;43451;49.060;10.616;2023-05-11T10:58:13;96476.19;;;11.50;100.00
57628;BME280;43451;49.060;10.616;2023-05-11T11:03:12;96470.63;;;11.64;100.00
57628;BME280;43451;49.060;10.616;2023-05-11T11:05:38;96467.16;;;11.56;100.00
57628;BME280;43451;49.060;10.616;2023-05-11T11:08:04;96476.59;;;11.48;100.00
57628;BME280;43451;49.060;10.616;2023-05-11T11:13:16;96469.94;;;11.53;100.00
57628;BME280;43451;49.060;10.616;2023-05-11T11:18:22;96479.84;;;11.74;100.00
57628;BME280;43451;49.060;10.616;2023-05-11T11:20:48;96468.97;;;11.70;100.00
57628;BME280;43451;49.060;10.616;2023-05-11T11:25:58;96471.34;;;11.68;100.00
57628;BME280;43451;49.060;10.616;2023-05-11T11:28:25;96478.44;;;11.58;100.00
57628;BME280;43451;49.060;10.616;2023-05-11T11:31:21;96474.91;;;11.61;100.00
57628;BME280;43451;49.060;10.616;2023-05-11T11:33:39;96468.25;;;11.66;100.00
57628;BME280;43451;49.060;10.616;2023-05-11T11:36:05;96474.44;;;11.67;100.00
57628;BME280;43451;49.060;10.616;2023-05-11T11:38:30;96475.53;;;11.35;100.00
57628;BME280;43451;49.060;10.616;2023-05-11T11:40:57;96477.06;;;11.39;100.00
57628;BME280;43451;49.060;10.616;2023-05-11T11:43:26;96473.16;;;11.41;100.00
57628;BME280;43451;49.060;10.616;2023-05-11T11:45:56;96470.09;;;11.35;100.00
57628;BME280;43451;49.060;10.616;2023-05-11T11:48:31;96474.44;;;11.25;100.00
57628;BME280;43451;49.060;10.616;2023-05-11T11:51:03;96478.56;;;11.44;100.00
57628;BME280;43451;49.060;10.616;2023-05-11T11:56:02;96478.50;;;11.51;100.00
57628;BME280;43451;49.060;10.616;2023-05-11T12:01:06;96480.13;;;11.45;100.00
57628;BME280;43451;49.060;10.616;2023-05-11T12:03:34;96481.72;;;11.39;100.00
57628;BME280;43451;49.060;10.616;2023-05-11T12:06:00;96477.09;;;11.36;100.00
57628;BME280;43451;49.060;10.616;2023-05-11T12:08:28;96477.41;;;11.45;100.00
57628;BME280;43451;49.060;10.616;2023-05-11T12:10:53;96479.75;;;11.43;100.00
57628;BME280;43451;49.060;10.616;2023-05-11T12:13:19;96486.81;;;11.33;100.00
57628;BME280;43451;49.060;10.616;2023-05-11T12:15:45;96483.03;;;11.24;100.00
57628;BME280;43451;49.060;10.616;2023-05-11T12:18:20;96485.34;;;11.22;100.00
57628;BME280;43451;49.060;10.616;2023-05-11T12:20:45;96483.44;;;11.19;100.00
57628;BME280;43451;49.060;10.616;2023-05-11T12:23:11;96475.53;;;11.38;100.00
57628;BME280;43451;49.060;10.616;2023-05-11T12:25:38;96477.31;;;11.52;100.00
57628;BME280;43451;49.060;10.616;2023-05-11T12:28:04;96476.31;;;11.35;100.00
57628;BME280;43451;49.060;10.616;2023-05-11T12:30:31;96481.34;;;11.37;100.00
57628;BME280;43451;49.060;10.616;2023-05-11T12:32:57;96475.00;;;11.51;100.00
57628;BME280;43451;49.060;10.616;2023-05-11T12:35:32;96484.38;;;11.46;100.00
57628;BME280;43451;49.060;10.616;2023-05-11T12:37:58;96471.66;;;11.36;100.00
57628;BME280;43451;49.060;10.616;2023-05-11T12:40:24;96464.78;;;11.62;100.00
57628;BME280;43451;49.060;10.616;2023-05-11T12:42:56;96473.72;;;11.62;100.00
57628;BME280;43451;49.060;10.616;2023-05-11T12:45:22;96464.31;;;11.71;100.00
57628;BME280;43451;49.060;10.616;2023-05-11T12:47:49;96458.75;;;11.81;100.00
57628;BME280;43451;49.060;10.616;2023-05-11T12:50:15;96465.00;;;11.78;100.00
57628;BME280;43451;49.060;10.616;2023-05-11T12:52:41;96466.97;;;11.78;100.00
57628;BME280;43451;49.060;10.616;2023-05-11T12:55:06;96466.53;;;11.83;100.00
57628;BME280;43451;49.060;10.616;2023-05-11T12:57:32;96468.09;;;11.80;100.00
57628;BME280;43451;49.060;10.616;2023-05-11T13:02:53;96466.66;;;11.69;100.00
57628;BME280;43451;49.060;10.616;2023-05-11T13:05:26;96465.22;;;11.57;100.00
57628;BME280;43451;49.060;10.616;2023-05-11T13:07:58;96465.19;;;11.60;100.00
57628;BME280;43451;49.060;10.616;2023-05-11T13:10:24;96455.09;;;11.61;100.00